Norge, Virginia
Current Conditions -  °F | °C
As of 10:55 AM on Thursday 27 Nov 2014 (Local Time) from KJGG Reporting Station
Overcast Overcast  
Wind Chill: 45°   Ceiling: 1400
Heat Index: 45°   Visibility: 10mi
Dew Point: 43°   Wind: 3mph
Humidity: 93%   Direction: 260°W
Pressure: 30.06"   Gusts: NA
Location:  37.37°N, 76.77°W
Report Text: KJGG 271555Z AUTO 26003KT 10SM SCT009 BKN014 OVC026 07/06 A3006 RMK AO1 P0001
Loading
Personal Weather Stations






























Interactive Weather Map New forecast layout! Learn more

10-Day Weather Forecast

Advertisements
Track Severe Weather on mobile